Portada
METAR-TAF:

METAR-TAF

Aeroports :

Jackson, Mississipí, Estats Units d'Amèrica

latitud: 32-19-11N, longitud: 090-04-39W, altitud: 105 m

Observació

L'informe es va fer fa 30 minuts, a les 12:06 UTC
Vent calma
Temperatura 7°C
Humitat 100%
Pressió 1020 hPa
Visibilitat: 9.7 km
Cel clar
boirina

METAR: KJAN 261206Z 00000KT 6SM BR CLR 07/07 A3012 RMK AO2 T00720067

Hora: 06:36 (12:36 UTC)

Pronòstic

L'informe es va fer fa 1 hora i 8 minuts, a les 11:28 UTC
Pronòstic vàlid del 26 a les 12 UTC al 27 a les 12 UTC
Vent 3 kt del Nord
Visibilitat: 4.8 km
Núvols disperses a una alçada de 6000 ft
boirina
A partir de les 26 a les 1400 UTC
Vent 5 kt del Nord
Visibilitat: 10 km
Cel clar

TAF: KJAN 261128Z 2612/2712 35003KT 3SM BR SCT060 FM261400 35005KT P6SM SKC

Observacions i pronòstics meteorològics de més de 4000 aeroports (METAR i TAF).

Les estacions disponibles són els punts grocs i vermells al mapa.

Posi el ratolí al punt desitjat per veure el nom de l'estació.

Feu clic per veure les observacions i els pronòstics meteorològics.

Per canviar el mapa: feu clic els botons verds amb una creu de color negre per apropar; al botó verd amb un guió per allunyar la imatge; o en les fletxes verdes per a mapes adjacents.


METAR-TAF: